Airfield :
LOGIN :

Register | Disclaimer

   EN    FR    IT 

 










Legend :    VFR   Marginal VFR   IFR   Intensive IFR   Very Intensive IFR
Visi :
Ceiling :
>= 8 km
>= 3000ft
5 to 8 km
1000 to 3000 ft
1500m to 5 km
500 to 1000 ft
800 to 1500m
200 to 500 ft
< 800m
< 200 ft
Symbols :   Thunderstorms  Fog  Heavy snow  Heavy precipitations  Wind > 20 kt
SIGMETs :     Misc.  Thunderstorms  Icing  Turbulence  Mountain Waves  Volcanic Ashes







- Airport Elevation : 325 ft
- IATA code : BES
- Download approach charts


LFRB - Brest

CURRENT METAR :
  • 121600Z AUTO 14013KT 5000 BR OVC002 07/06 Q1014 TEMPO RADZ

EXPIRED METARs :
  • 121530Z AUTO 14011KT 5000 BR OVC002 07/07 Q1014 TEMPO RADZ
  • 121500Z AUTO 16011KT 9999 OVC003 08/07 Q1015 TEMPO 3000 RADZ BR
  • 121430Z AUTO 14009KT 9999 OVC004 08/07 Q1015 TEMPO 3000 RADZ BR
  • 121400Z AUTO 15008KT 9999 OVC004 08/07 Q1015 BECMG SCT005 BKN015 BKN040
  • 121330Z AUTO 15006KT 9999 OVC004 08/07 Q1016 BECMG SCT005 BKN015 BKN040

TAF AMD TAF LFRB
Valid from the 12 at 14:00 until the 13 at 18:00 UTC


121416Z 1214/1318 15008KT 9999 SCT005 BKN010
TEMPO 1214/1218 3000 RADZ BR OVC003
BECMG 1220/1222 16015G25KT
BECMG 1309/1312 14010KT
ATIS : +33 2 98 32 02 71
No reported NOTAMs for that airfield.



MET'MAP, your aeronautical weather chart ! - Copyright ORBIFLY December 2007 - Disclaimer

ORBIFLY MET'MAP TEAM :

Programming & Development : Alexandra Zaïnal
Concept & Development : Baudouin d'Aumeries
Co-Development & Prog : Marc-Olivier Méhu
Technical & hardware support : Manuel Goepfert

Contact : metmap@orbifly.com




SOURCES & CREDITS :

   NOAA